sensor_id;sensor_type;location;lat;lon;timestamp;P1;durP1;ratioP1;P2;durP2;ratioP2
8893;SDS011;4483;48.622;9.230;2022-11-30T00:00:05;25.30;;;17.50;;
8893;SDS011;4483;48.622;9.230;2022-11-30T00:02:34;26.83;;;17.03;;
8893;SDS011;4483;48.622;9.230;2022-11-30T00:05:01;25.47;;;17.30;;
8893;SDS011;4483;48.622;9.230;2022-11-30T00:07:28;23.87;;;16.20;;
8893;SDS011;4483;48.622;9.230;2022-11-30T00:09:55;25.97;;;17.00;;
8893;SDS011;4483;48.622;9.230;2022-11-30T00:12:21;26.27;;;17.03;;
8893;SDS011;4483;48.622;9.230;2022-11-30T00:14:48;27.27;;;16.87;;
8893;SDS011;4483;48.622;9.230;2022-11-30T00:17:15;25.73;;;17.27;;
8893;SDS011;4483;48.622;9.230;2022-11-30T00:19:42;23.67;;;16.53;;
8893;SDS011;4483;48.622;9.230;2022-11-30T00:22:09;23.53;;;16.80;;
8893;SDS011;4483;48.622;9.230;2022-11-30T00:24:36;21.17;;;15.93;;
8893;SDS011;4483;48.622;9.230;2022-11-30T00:27:02;25.87;;;16.97;;
8893;SDS011;4483;48.622;9.230;2022-11-30T00:29:29;22.90;;;16.77;;
8893;SDS011;4483;48.622;9.230;2022-11-30T00:31:56;26.07;;;16.07;;
8893;SDS011;4483;48.622;9.230;2022-11-30T00:34:22;23.83;;;15.83;;
8893;SDS011;4483;48.622;9.230;2022-11-30T00:36:50;22.90;;;15.87;;
8893;SDS011;4483;48.622;9.230;2022-11-30T00:39:17;26.70;;;15.97;;
8893;SDS011;4483;48.622;9.230;2022-11-30T00:41:44;23.97;;;16.70;;
8893;SDS011;4483;48.622;9.230;2022-11-30T00:44:10;24.30;;;16.77;;
8893;SDS011;4483;48.622;9.230;2022-11-30T00:46:37;21.70;;;15.27;;
8893;SDS011;4483;48.622;9.230;2022-11-30T00:49:03;23.13;;;15.73;;
8893;SDS011;4483;48.622;9.230;2022-11-30T00:51:30;22.23;;;14.87;;
8893;SDS011;4483;48.622;9.230;2022-11-30T00:53:58;22.30;;;15.37;;
8893;SDS011;4483;48.622;9.230;2022-11-30T00:56:25;22.90;;;16.10;;
8893;SDS011;4483;48.622;9.230;2022-11-30T00:58:51;20.93;;;15.73;;
8893;SDS011;4483;48.622;9.230;2022-11-30T01:01:18;21.47;;;15.47;;
8893;SDS011;4483;48.622;9.230;2022-11-30T01:03:44;19.23;;;14.40;;
8893;SDS011;4483;48.622;9.230;2022-11-30T01:06:12;20.63;;;14.63;;
8893;SDS011;4483;48.622;9.230;2022-11-30T01:08:39;23.53;;;16.17;;
8893;SDS011;4483;48.622;9.230;2022-11-30T01:11:08;21.03;;;15.83;;
8893;SDS011;4483;48.622;9.230;2022-11-30T01:13:38;20.83;;;15.70;;
8893;SDS011;4483;48.622;9.230;2022-11-30T01:16:09;20.30;;;15.00;;
8893;SDS011;4483;48.622;9.230;2022-11-30T01:18:37;18.53;;;14.63;;
8893;SDS011;4483;48.622;9.230;2022-11-30T01:21:04;21.60;;;14.90;;
8893;SDS011;4483;48.622;9.230;2022-11-30T01:23:31;24.13;;;15.03;;
8893;SDS011;4483;48.622;9.230;2022-11-30T01:25:58;21.57;;;15.03;;
8893;SDS011;4483;48.622;9.230;2022-11-30T01:28:26;20.10;;;15.20;;
8893;SDS011;4483;48.622;9.230;2022-11-30T01:30:56;23.87;;;15.83;;
8893;SDS011;4483;48.622;9.230;2022-11-30T01:33:23;21.10;;;14.90;;
8893;SDS011;4483;48.622;9.230;2022-11-30T01:35:57;20.37;;;14.57;;
8893;SDS011;4483;48.622;9.230;2022-11-30T01:38:24;22.33;;;14.07;;
8893;SDS011;4483;48.622;9.230;2022-11-30T01:40:51;20.53;;;14.77;;
8893;SDS011;4483;48.622;9.230;2022-11-30T01:43:18;22.33;;;15.03;;
8893;SDS011;4483;48.622;9.230;2022-11-30T01:45:47;20.67;;;14.37;;
8893;SDS011;4483;48.622;9.230;2022-11-30T01:48:14;19.67;;;14.83;;
8893;SDS011;4483;48.622;9.230;2022-11-30T01:50:41;24.00;;;14.93;;
8893;SDS011;4483;48.622;9.230;2022-11-30T01:53:10;21.43;;;14.90;;
8893;SDS011;4483;48.622;9.230;2022-11-30T01:55:38;19.90;;;14.20;;
8893;SDS011;4483;48.622;9.230;2022-11-30T01:58:09;18.53;;;13.23;;
8893;SDS011;4483;48.622;9.230;2022-11-30T02:00:37;19.17;;;14.83;;
8893;SDS011;4483;48.622;9.230;2022-11-30T02:03:07;18.57;;;13.73;;
8893;SDS011;4483;48.622;9.230;2022-11-30T02:05:38;18.27;;;14.03;;
8893;SDS011;4483;48.622;9.230;2022-11-30T02:08:06;22.70;;;13.67;;
8893;SDS011;4483;48.622;9.230;2022-11-30T02:10:35;21.73;;;14.77;;
8893;SDS011;4483;48.622;9.230;2022-11-30T02:13:06;18.07;;;13.73;;
8893;SDS011;4483;48.622;9.230;2022-11-30T02:16:05;19.03;;;13.40;;
8893;SDS011;4483;48.622;9.230;2022-11-30T02:18:42;20.93;;;13.43;;
8893;SDS011;4483;48.622;9.230;2022-11-30T02:21:16;18.03;;;13.60;;
8893;SDS011;4483;48.622;9.230;2022-11-30T02:24:07;19.23;;;14.10;;
8893;SDS011;4483;48.622;9.230;2022-11-30T02:26:58;18.93;;;14.03;;
8893;SDS011;4483;48.622;9.230;2022-11-30T02:29:37;17.53;;;13.77;;
8893;SDS011;4483;48.622;9.230;2022-11-30T02:32:08;17.93;;;13.20;;
8893;SDS011;4483;48.622;9.230;2022-11-30T02:34:39;18.60;;;13.83;;
8893;SDS011;4483;48.622;9.230;2022-11-30T02:37:08;19.93;;;14.07;;
8893;SDS011;4483;48.622;9.230;2022-11-30T02:39:37;22.20;;;16.50;;
8893;SDS011;4483;48.622;9.230;2022-11-30T02:42:04;18.73;;;14.23;;
8893;SDS011;4483;48.622;9.230;2022-11-30T02:44:31;19.03;;;14.30;;
8893;SDS011;4483;48.622;9.230;2022-11-30T02:47:03;16.80;;;13.33;;
8893;SDS011;4483;48.622;9.230;2022-11-30T02:49:39;17.63;;;12.77;;
8893;SDS011;4483;48.622;9.230;2022-11-30T02:52:12;16.43;;;12.40;;
8893;SDS011;4483;48.622;9.230;2022-11-30T02:54:40;16.13;;;11.77;;
8893;SDS011;4483;48.622;9.230;2022-11-30T02:57:07;15.23;;;12.23;;
8893;SDS011;4483;48.622;9.230;2022-11-30T02:59:34;15.93;;;11.60;;
8893;SDS011;4483;48.622;9.230;2022-11-30T03:02:02;20.20;;;12.77;;
8893;SDS011;4483;48.622;9.230;2022-11-30T03:04:29;23.77;;;12.27;;
8893;SDS011;4483;48.622;9.230;2022-11-30T03:06:55;15.87;;;11.80;;
8893;SDS011;4483;48.622;9.230;2022-11-30T03:09:22;16.90;;;12.33;;
8893;SDS011;4483;48.622;9.230;2022-11-30T03:11:48;18.13;;;11.90;;
8893;SDS011;4483;48.622;9.230;2022-11-30T03:14:15;16.73;;;11.70;;
8893;SDS011;4483;48.622;9.230;2022-11-30T03:16:42;21.90;;;11.67;;
8893;SDS011;4483;48.622;9.230;2022-11-30T03:19:10;18.93;;;12.33;;
8893;SDS011;4483;48.622;9.230;2022-11-30T03:21:38;17.53;;;12.33;;
8893;SDS011;4483;48.622;9.230;2022-11-30T03:24:05;14.90;;;11.33;;
8893;SDS011;4483;48.622;9.230;2022-11-30T03:26:32;16.83;;;12.03;;
8893;SDS011;4483;48.622;9.230;2022-11-30T03:28:58;14.73;;;12.07;;
8893;SDS011;4483;48.622;9.230;2022-11-30T03:31:25;16.20;;;12.07;;
8893;SDS011;4483;48.622;9.230;2022-11-30T03:33:52;16.93;;;11.33;;
8893;SDS011;4483;48.622;9.230;2022-11-30T03:36:20;16.37;;;11.63;;
8893;SDS011;4483;48.622;9.230;2022-11-30T03:38:46;16.43;;;11.67;;
8893;SDS011;4483;48.622;9.230;2022-11-30T03:41:14;15.23;;;11.73;;
8893;SDS011;4483;48.622;9.230;2022-11-30T03:43:42;15.00;;;12.33;;
8893;SDS011;4483;48.622;9.230;2022-11-30T03:46:09;15.60;;;11.30;;
8893;SDS011;4483;48.622;9.230;2022-11-30T03:48:35;16.30;;;11.50;;
8893;SDS011;4483;48.622;9.230;2022-11-30T03:51:02;16.13;;;11.33;;
8893;SDS011;4483;48.622;9.230;2022-11-30T03:53:31;14.33;;;10.80;;
8893;SDS011;4483;48.622;9.230;2022-11-30T03:55:58;14.57;;;11.20;;
8893;SDS011;4483;48.622;9.230;2022-11-30T03:58:26;14.63;;;11.07;;
8893;SDS011;4483;48.622;9.230;2022-11-30T04:00:58;13.47;;;10.87;;
8893;SDS011;4483;48.622;9.230;2022-11-30T04:03:26;16.47;;;11.30;;
8893;SDS011;4483;48.622;9.230;2022-11-30T04:05:53;15.53;;;10.90;;
8893;SDS011;4483;48.622;9.230;2022-11-30T04:08:20;18.00;;;11.10;;
8893;SDS011;4483;48.622;9.230;2022-11-30T04:10:49;14.87;;;11.33;;
8893;SDS011;4483;48.622;9.230;2022-11-30T04:13:16;14.63;;;11.13;;
8893;SDS011;4483;48.622;9.230;2022-11-30T04:15:44;16.07;;;10.70;;
8893;SDS011;4483;48.622;9.230;2022-11-30T04:18:11;12.87;;;10.40;;
8893;SDS011;4483;48.622;9.230;2022-11-30T04:20:37;13.40;;;10.53;;
8893;SDS011;4483;48.622;9.230;2022-11-30T04:23:04;12.63;;;9.43;;
8893;SDS011;4483;48.622;9.230;2022-11-30T04:25:31;12.63;;;10.23;;
8893;SDS011;4483;48.622;9.230;2022-11-30T04:27:59;13.17;;;10.60;;
8893;SDS011;4483;48.622;9.230;2022-11-30T04:30:25;13.07;;;11.07;;
8893;SDS011;4483;48.622;9.230;2022-11-30T04:32:52;23.67;;;17.70;;
8893;SDS011;4483;48.622;9.230;2022-11-30T04:35:18;14.23;;;11.03;;
8893;SDS011;4483;48.622;9.230;2022-11-30T04:37:45;12.83;;;10.30;;
8893;SDS011;4483;48.622;9.230;2022-11-30T04:40:12;11.80;;;10.17;;
8893;SDS011;4483;48.622;9.230;2022-11-30T04:42:38;16.63;;;10.30;;
8893;SDS011;4483;48.622;9.230;2022-11-30T04:45:07;12.87;;;9.93;;
8893;SDS011;4483;48.622;9.230;2022-11-30T04:47:35;15.27;;;10.47;;
8893;SDS011;4483;48.622;9.230;2022-11-30T04:50:02;15.10;;;10.40;;
8893;SDS011;4483;48.622;9.230;2022-11-30T04:52:29;12.37;;;9.43;;
8893;SDS011;4483;48.622;9.230;2022-11-30T04:54:56;13.07;;;9.70;;
8893;SDS011;4483;48.622;9.230;2022-11-30T04:57:22;13.40;;;9.97;;
8893;SDS011;4483;48.622;9.230;2022-11-30T04:59:49;12.33;;;9.83;;
8893;SDS011;4483;48.622;9.230;2022-11-30T05:02:17;12.97;;;10.13;;
8893;SDS011;4483;48.622;9.230;2022-11-30T05:04:44;14.50;;;10.70;;
8893;SDS011;4483;48.622;9.230;2022-11-30T05:07:10;15.13;;;10.57;;
8893;SDS011;4483;48.622;9.230;2022-11-30T05:09:37;13.20;;;10.00;;
8893;SDS011;4483;48.622;9.230;2022-11-30T05:12:04;13.33;;;10.60;;
8893;SDS011;4483;48.622;9.230;2022-11-30T05:14:30;13.17;;;10.33;;
8893;SDS011;4483;48.622;9.230;2022-11-30T05:16:57;13.37;;;10.90;;
8893;SDS011;4483;48.622;9.230;2022-11-30T05:19:25;11.97;;;10.10;;
8893;SDS011;4483;48.622;9.230;2022-11-30T05:21:52;16.53;;;10.17;;
8893;SDS011;4483;48.622;9.230;2022-11-30T05:24:18;13.87;;;10.00;;
8893;SDS011;4483;48.622;9.230;2022-11-30T05:26:45;13.20;;;10.00;;
8893;SDS011;4483;48.622;9.230;2022-11-30T05:29:12;13.53;;;9.90;;
8893;SDS011;4483;48.622;9.230;2022-11-30T05:31:38;12.60;;;10.03;;
8893;SDS011;4483;48.622;9.230;2022-11-30T05:34:05;12.37;;;9.67;;
8893;SDS011;4483;48.622;9.230;2022-11-30T05:36:33;12.93;;;10.07;;
8893;SDS011;4483;48.622;9.230;2022-11-30T05:39:00;12.57;;;9.80;;
8893;SDS011;4483;48.622;9.230;2022-11-30T05:41:27;14.00;;;9.63;;
8893;SDS011;4483;48.622;9.230;2022-11-30T05:43:53;12.00;;;10.00;;
8893;SDS011;4483;48.622;9.230;2022-11-30T05:46:20;11.93;;;9.50;;
8893;SDS011;4483;48.622;9.230;2022-11-30T05:48:47;14.77;;;9.20;;
8893;SDS011;4483;48.622;9.230;2022-11-30T05:51:14;12.03;;;9.10;;
8893;SDS011;4483;48.622;9.230;2022-11-30T05:53:44;11.17;;;9.33;;
8893;SDS011;4483;48.622;9.230;2022-11-30T05:56:12;11.73;;;9.53;;
8893;SDS011;4483;48.622;9.230;2022-11-30T05:58:40;13.67;;;9.83;;
8893;SDS011;4483;48.622;9.230;2022-11-30T06:01:15;10.63;;;8.70;;
8893;SDS011;4483;48.622;9.230;2022-11-30T06:03:43;10.57;;;8.70;;
8893;SDS011;4483;48.622;9.230;2022-11-30T06:06:09;12.67;;;9.23;;
8893;SDS011;4483;48.622;9.230;2022-11-30T06:08:36;10.80;;;9.03;;
8893;SDS011;4483;48.622;9.230;2022-11-30T06:11:04;9.80;;;8.77;;
8893;SDS011;4483;48.622;9.230;2022-11-30T06:13:31;11.20;;;9.47;;
8893;SDS011;4483;48.622;9.230;2022-11-30T06:15:58;13.13;;;9.17;;
8893;SDS011;4483;48.622;9.230;2022-11-30T06:18:25;11.65;;;9.68;;
8893;SDS011;4483;48.622;9.230;2022-11-30T06:20:51;11.50;;;9.10;;
8893;SDS011;4483;48.622;9.230;2022-11-30T06:23:18;11.30;;;8.93;;
8893;SDS011;4483;48.622;9.230;2022-11-30T06:25:45;11.20;;;8.73;;
8893;SDS011;4483;48.622;9.230;2022-11-30T06:28:13;10.33;;;9.00;;
8893;SDS011;4483;48.622;9.230;2022-11-30T06:30:39;11.63;;;8.60;;
8893;SDS011;4483;48.622;9.230;2022-11-30T06:33:06;9.83;;;8.27;;
8893;SDS011;4483;48.622;9.230;2022-11-30T06:35:32;10.43;;;8.60;;
8893;SDS011;4483;48.622;9.230;2022-11-30T06:37:59;10.60;;;8.37;;
8893;SDS011;4483;48.622;9.230;2022-11-30T06:40:26;12.23;;;9.03;;
8893;SDS011;4483;48.622;9.230;2022-11-30T06:42:53;11.83;;;8.90;;
8893;SDS011;4483;48.622;9.230;2022-11-30T06:45:21;12.27;;;8.57;;
8893;SDS011;4483;48.622;9.230;2022-11-30T06:47:47;9.70;;;8.70;;
8893;SDS011;4483;48.622;9.230;2022-11-30T06:50:14;13.77;;;9.47;;
8893;SDS011;4483;48.622;9.230;2022-11-30T06:52:41;11.03;;;8.67;;
8893;SDS011;4483;48.622;9.230;2022-11-30T06:55:07;11.20;;;9.20;;
8893;SDS011;4483;48.622;9.230;2022-11-30T06:57:34;10.60;;;8.87;;
8893;SDS011;4483;48.622;9.230;2022-11-30T07:00:01;12.23;;;9.10;;
8893;SDS011;4483;48.622;9.230;2022-11-30T07:02:30;11.37;;;9.40;;
8893;SDS011;4483;48.622;9.230;2022-11-30T07:04:57;14.53;;;9.40;;
8893;SDS011;4483;48.622;9.230;2022-11-30T07:07:23;12.30;;;9.47;;
8893;SDS011;4483;48.622;9.230;2022-11-30T07:09:50;12.03;;;9.67;;
8893;SDS011;4483;48.622;9.230;2022-11-30T07:12:17;13.87;;;9.50;;
8893;SDS011;4483;48.622;9.230;2022-11-30T07:14:43;12.43;;;8.97;;
8893;SDS011;4483;48.622;9.230;2022-11-30T07:17:10;12.57;;;9.80;;
8893;SDS011;4483;48.622;9.230;2022-11-30T07:19:38;17.57;;;10.10;;
8893;SDS011;4483;48.622;9.230;2022-11-30T07:22:04;13.30;;;10.17;;
8893;SDS011;4483;48.622;9.230;2022-11-30T07:24:31;16.17;;;10.83;;
8893;SDS011;4483;48.622;9.230;2022-11-30T07:27:15;13.33;;;10.10;;
8893;SDS011;4483;48.622;9.230;2022-11-30T07:29:42;15.23;;;9.87;;
8893;SDS011;4483;48.622;9.230;2022-11-30T07:32:08;13.40;;;10.90;;
8893;SDS011;4483;48.622;9.230;2022-11-30T07:34:35;13.20;;;10.37;;
8893;SDS011;4483;48.622;9.230;2022-11-30T07:37:03;13.93;;;10.23;;
8893;SDS011;4483;48.622;9.230;2022-11-30T07:39:30;13.07;;;10.60;;
8893;SDS011;4483;48.622;9.230;2022-11-30T07:41:56;14.23;;;10.47;;
8893;SDS011;4483;48.622;9.230;2022-11-30T07:44:23;15.50;;;10.57;;
8893;SDS011;4483;48.622;9.230;2022-11-30T07:46:50;13.37;;;10.30;;
8893;SDS011;4483;48.622;9.230;2022-11-30T07:49:17;14.07;;;10.27;;
8893;SDS011;4483;48.622;9.230;2022-11-30T07:51:43;13.67;;;10.33;;
8893;SDS011;4483;48.622;9.230;2022-11-30T07:54:11;15.07;;;9.90;;
8893;SDS011;4483;48.622;9.230;2022-11-30T07:56:38;13.30;;;10.13;;
8893;SDS011;4483;48.622;9.230;2022-11-30T07:59:05;15.70;;;10.67;;
8893;SDS011;4483;48.622;9.230;2022-11-30T08:01:32;13.97;;;10.20;;
8893;SDS011;4483;48.622;9.230;2022-11-30T08:03:59;12.27;;;9.53;;
8893;SDS011;4483;48.622;9.230;2022-11-30T08:06:26;14.77;;;10.23;;
8893;SDS011;4483;48.622;9.230;2022-11-30T08:08:55;13.43;;;10.77;;
8893;SDS011;4483;48.622;9.230;2022-11-30T08:11:25;12.77;;;10.37;;
8893;SDS011;4483;48.622;9.230;2022-11-30T08:13:54;13.90;;;10.77;;
8893;SDS011;4483;48.622;9.230;2022-11-30T08:16:21;14.63;;;10.87;;
8893;SDS011;4483;48.622;9.230;2022-11-30T08:18:49;14.93;;;9.97;;
8893;SDS011;4483;48.622;9.230;2022-11-30T08:21:16;11.50;;;9.43;;
8893;SDS011;4483;48.622;9.230;2022-11-30T08:23:45;11.80;;;8.97;;
8893;SDS011;4483;48.622;9.230;2022-11-30T08:26:13;11.80;;;9.40;;
8893;SDS011;4483;48.622;9.230;2022-11-30T08:28:43;14.10;;;9.87;;
8893;SDS011;4483;48.622;9.230;2022-11-30T08:31:12;14.23;;;9.60;;
8893;SDS011;4483;48.622;9.230;2022-11-30T08:33:40;12.97;;;10.17;;
8893;SDS011;4483;48.622;9.230;2022-11-30T08:36:07;12.20;;;10.03;;
8893;SDS011;4483;48.622;9.230;2022-11-30T08:38:35;13.13;;;9.80;;
8893;SDS011;4483;48.622;9.230;2022-11-30T08:41:03;14.37;;;10.17;;
8893;SDS011;4483;48.622;9.230;2022-11-30T08:43:30;12.13;;;9.50;;
8893;SDS011;4483;48.622;9.230;2022-11-30T08:46:00;11.27;;;9.67;;
8893;SDS011;4483;48.622;9.230;2022-11-30T08:48:28;13.80;;;10.37;;
8893;SDS011;4483;48.622;9.230;2022-11-30T08:50:57;15.10;;;9.10;;
8893;SDS011;4483;48.622;9.230;2022-11-30T08:53:24;11.40;;;9.77;;
8893;SDS011;4483;48.622;9.230;2022-11-30T08:55:54;11.97;;;9.63;;
8893;SDS011;4483;48.622;9.230;2022-11-30T08:58:22;12.60;;;8.80;;
8893;SDS011;4483;48.622;9.230;2022-11-30T09:00:49;11.47;;;9.00;;
8893;SDS011;4483;48.622;9.230;2022-11-30T09:03:17;12.13;;;9.70;;
8893;SDS011;4483;48.622;9.230;2022-11-30T09:05:43;11.10;;;8.90;;
8893;SDS011;4483;48.622;9.230;2022-11-30T09:08:10;13.73;;;9.33;;
8893;SDS011;4483;48.622;9.230;2022-11-30T09:10:36;12.97;;;9.13;;
8893;SDS011;4483;48.622;9.230;2022-11-30T09:13:03;12.03;;;9.80;;
8893;SDS011;4483;48.622;9.230;2022-11-30T09:15:30;11.30;;;9.10;;
8893;SDS011;4483;48.622;9.230;2022-11-30T09:17:57;12.93;;;9.63;;
8893;SDS011;4483;48.622;9.230;2022-11-30T09:20:25;13.30;;;9.80;;
8893;SDS011;4483;48.622;9.230;2022-11-30T09:22:52;10.23;;;8.73;;
8893;SDS011;4483;48.622;9.230;2022-11-30T09:25:18;12.77;;;9.60;;
8893;SDS011;4483;48.622;9.230;2022-11-30T09:27:45;13.37;;;9.70;;
8893;SDS011;4483;48.622;9.230;2022-11-30T09:30:12;10.90;;;9.53;;
8893;SDS011;4483;48.622;9.230;2022-11-30T09:32:39;11.27;;;9.03;;
8893;SDS011;4483;48.622;9.230;2022-11-30T09:35:05;11.23;;;9.23;;
8893;SDS011;4483;48.622;9.230;2022-11-30T09:37:34;10.63;;;9.17;;
8893;SDS011;4483;48.622;9.230;2022-11-30T09:40:01;11.80;;;9.07;;
8893;SDS011;4483;48.622;9.230;2022-11-30T09:45:16;16.47;;;11.30;;
8893;SDS011;4483;48.622;9.230;2022-11-30T09:48:01;17.33;;;13.03;;
8893;SDS011;4483;48.622;9.230;2022-11-30T09:50:53;17.27;;;12.90;;
8893;SDS011;4483;48.622;9.230;2022-11-30T09:53:26;18.23;;;13.47;;
8893;SDS011;4483;48.622;9.230;2022-11-30T09:56:01;18.03;;;12.90;;
8893;SDS011;4483;48.622;9.230;2022-11-30T09:58:33;19.60;;;13.60;;
8893;SDS011;4483;48.622;9.230;2022-11-30T10:01:05;16.57;;;11.73;;
8893;SDS011;4483;48.622;9.230;2022-11-30T10:03:41;15.83;;;11.93;;
8893;SDS011;4483;48.622;9.230;2022-11-30T10:06:08;17.27;;;12.13;;
8893;SDS011;4483;48.622;9.230;2022-11-30T10:08:45;16.13;;;10.43;;
8893;SDS011;4483;48.622;9.230;2022-11-30T10:11:27;14.43;;;10.50;;
8893;SDS011;4483;48.622;9.230;2022-11-30T10:14:14;13.93;;;10.97;;
8893;SDS011;4483;48.622;9.230;2022-11-30T10:16:52;14.50;;;10.77;;
8893;SDS011;4483;48.622;9.230;2022-11-30T10:19:29;17.17;;;11.17;;
8893;SDS011;4483;48.622;9.230;2022-11-30T10:22:15;12.33;;;9.00;;
8893;SDS011;4483;48.622;9.230;2022-11-30T10:24:53;13.97;;;9.27;;
8893;SDS011;4483;48.622;9.230;2022-11-30T10:27:32;11.73;;;9.43;;
8893;SDS011;4483;48.622;9.230;2022-11-30T10:30:11;12.70;;;9.87;;
8893;SDS011;4483;48.622;9.230;2022-11-30T10:32:40;12.97;;;9.90;;
8893;SDS011;4483;48.622;9.230;2022-11-30T10:35:14;13.70;;;10.20;;
8893;SDS011;4483;48.622;9.230;2022-11-30T10:37:46;12.93;;;9.97;;
8893;SDS011;4483;48.622;9.230;2022-11-30T10:40:18;14.30;;;10.57;;
8893;SDS011;4483;48.622;9.230;2022-11-30T10:42:49;13.53;;;10.47;;
8893;SDS011;4483;48.622;9.230;2022-11-30T10:45:23;14.97;;;10.10;;
8893;SDS011;4483;48.622;9.230;2022-11-30T10:47:55;12.57;;;10.00;;
8893;SDS011;4483;48.622;9.230;2022-11-30T10:50:27;12.57;;;9.80;;
8893;SDS011;4483;48.622;9.230;2022-11-30T10:52:55;13.50;;;9.77;;
8893;SDS011;4483;48.622;9.230;2022-11-30T10:55:26;13.87;;;10.37;;
8893;SDS011;4483;48.622;9.230;2022-11-30T10:57:56;13.87;;;10.13;;
8893;SDS011;4483;48.622;9.230;2022-11-30T11:00:27;14.93;;;10.30;;
8893;SDS011;4483;48.622;9.230;2022-11-30T11:02:54;14.97;;;10.83;;
8893;SDS011;4483;48.622;9.230;2022-11-30T11:05:22;12.83;;;10.37;;
8893;SDS011;4483;48.622;9.230;2022-11-30T11:07:51;12.90;;;10.33;;
8893;SDS011;4483;48.622;9.230;2022-11-30T11:10:20;14.43;;;10.17;;
8893;SDS011;4483;48.622;9.230;2022-11-30T11:12:53;12.47;;;10.23;;
8893;SDS011;4483;48.622;9.230;2022-11-30T11:15:22;14.40;;;10.60;;
8893;SDS011;4483;48.622;9.230;2022-11-30T11:17:50;15.47;;;11.17;;
8893;SDS011;4483;48.622;9.230;2022-11-30T11:20:25;14.73;;;11.17;;
8893;SDS011;4483;48.622;9.230;2022-11-30T11:22:57;14.87;;;10.93;;
8893;SDS011;4483;48.622;9.230;2022-11-30T11:25:26;15.70;;;11.57;;
8893;SDS011;4483;48.622;9.230;2022-11-30T11:27:59;13.47;;;10.77;;
8893;SDS011;4483;48.622;9.230;2022-11-30T11:30:30;16.40;;;11.90;;
8893;SDS011;4483;48.622;9.230;2022-11-30T11:32:58;16.70;;;11.50;;
8893;SDS011;4483;48.622;9.230;2022-11-30T11:35:30;13.83;;;11.17;;
8893;SDS011;4483;48.622;9.230;2022-11-30T11:38:00;15.63;;;11.67;;
8893;SDS011;4483;48.622;9.230;2022-11-30T11:40:28;14.23;;;11.07;;
8893;SDS011;4483;48.622;9.230;2022-11-30T11:42:54;16.10;;;11.00;;
8893;SDS011;4483;48.622;9.230;2022-11-30T11:45:23;14.80;;;11.43;;
8893;SDS011;4483;48.622;9.230;2022-11-30T11:47:56;13.70;;;10.63;;
8893;SDS011;4483;48.622;9.230;2022-11-30T11:50:26;14.10;;;11.00;;
8893;SDS011;4483;48.622;9.230;2022-11-30T11:53:14;13.90;;;11.17;;
8893;SDS011;4483;48.622;9.230;2022-11-30T11:55:50;14.33;;;10.83;;
8893;SDS011;4483;48.622;9.230;2022-11-30T11:58:21;14.93;;;10.73;;
8893;SDS011;4483;48.622;9.230;2022-11-30T12:00:58;13.07;;;10.00;;
8893;SDS011;4483;48.622;9.230;2022-11-30T12:03:30;12.40;;;9.50;;
8893;SDS011;4483;48.622;9.230;2022-11-30T12:06:02;13.13;;;9.77;;
8893;SDS011;4483;48.622;9.230;2022-11-30T12:08:36;11.20;;;9.10;;
8893;SDS011;4483;48.622;9.230;2022-11-30T12:11:12;11.90;;;8.40;;
8893;SDS011;4483;48.622;9.230;2022-11-30T12:13:43;11.83;;;8.63;;
8893;SDS011;4483;48.622;9.230;2022-11-30T12:16:18;10.87;;;8.97;;
8893;SDS011;4483;48.622;9.230;2022-11-30T12:18:53;12.50;;;9.83;;
8893;SDS011;4483;48.622;9.230;2022-11-30T12:21:28;11.67;;;9.50;;
8893;SDS011;4483;48.622;9.230;2022-11-30T12:24:05;11.80;;;9.37;;
8893;SDS011;4483;48.622;9.230;2022-11-30T12:26:47;15.47;;;9.53;;
8893;SDS011;4483;48.622;9.230;2022-11-30T12:29:20;13.10;;;8.87;;
8893;SDS011;4483;48.622;9.230;2022-11-30T12:31:54;13.77;;;9.27;;
8893;SDS011;4483;48.622;9.230;2022-11-30T12:34:31;13.10;;;9.27;;
8893;SDS011;4483;48.622;9.230;2022-11-30T12:37:09;12.30;;;9.03;;
8893;SDS011;4483;48.622;9.230;2022-11-30T12:39:48;12.57;;;8.80;;
8893;SDS011;4483;48.622;9.230;2022-11-30T12:42:24;10.60;;;8.27;;
8893;SDS011;4483;48.622;9.230;2022-11-30T12:44:59;11.30;;;8.67;;
8893;SDS011;4483;48.622;9.230;2022-11-30T12:47:38;10.43;;;8.57;;
8893;SDS011;4483;48.622;9.230;2022-11-30T12:50:21;10.47;;;7.87;;
8893;SDS011;4483;48.622;9.230;2022-11-30T12:52:59;10.23;;;8.27;;
8893;SDS011;4483;48.622;9.230;2022-11-30T12:55:35;8.83;;;7.67;;
8893;SDS011;4483;48.622;9.230;2022-11-30T12:58:13;11.33;;;8.33;;
8893;SDS011;4483;48.622;9.230;2022-11-30T13:00:46;11.87;;;8.70;;
8893;SDS011;4483;48.622;9.230;2022-11-30T13:03:33;9.80;;;8.13;;
8893;SDS011;4483;48.622;9.230;2022-11-30T13:06:08;12.37;;;8.30;;
8893;SDS011;4483;48.622;9.230;2022-11-30T13:08:41;10.53;;;8.33;;
8893;SDS011;4483;48.622;9.230;2022-11-30T13:11:13;10.30;;;8.27;;
8893;SDS011;4483;48.622;9.230;2022-11-30T13:13:45;9.33;;;7.73;;
8893;SDS011;4483;48.622;9.230;2022-11-30T13:16:15;10.53;;;7.87;;
8893;SDS011;4483;48.622;9.230;2022-11-30T13:18:43;10.40;;;7.77;;
8893;SDS011;4483;48.622;9.230;2022-11-30T13:21:13;8.67;;;6.90;;
8893;SDS011;4483;48.622;9.230;2022-11-30T13:23:46;10.53;;;7.40;;
8893;SDS011;4483;48.622;9.230;2022-11-30T13:26:22;8.83;;;7.20;;
8893;SDS011;4483;48.622;9.230;2022-11-30T13:29:01;10.20;;;8.40;;
8893;SDS011;4483;48.622;9.230;2022-11-30T13:31:42;10.53;;;8.33;;
8893;SDS011;4483;48.622;9.230;2022-11-30T13:34:22;9.97;;;8.13;;
8893;SDS011;4483;48.622;9.230;2022-11-30T13:36:50;12.37;;;8.80;;
8893;SDS011;4483;48.622;9.230;2022-11-30T13:39:25;12.57;;;8.87;;
8893;SDS011;4483;48.622;9.230;2022-11-30T13:42:11;15.50;;;8.33;;
8893;SDS011;4483;48.622;9.230;2022-11-30T13:44:58;9.53;;;8.23;;
8893;SDS011;4483;48.622;9.230;2022-11-30T13:47:46;9.57;;;7.80;;
8893;SDS011;4483;48.622;9.230;2022-11-30T13:50:15;14.63;;;8.87;;
8893;SDS011;4483;48.622;9.230;2022-11-30T13:53:05;12.73;;;8.47;;
8893;SDS011;4483;48.622;9.230;2022-11-30T13:55:54;10.97;;;7.83;;
8893;SDS011;4483;48.622;9.230;2022-11-30T13:58:25;10.87;;;8.40;;
8893;SDS011;4483;48.622;9.230;2022-11-30T14:06:55;12.20;;;8.53;;
8893;SDS011;4483;48.622;9.230;2022-11-30T14:18:26;11.57;;;8.57;;
8893;SDS011;4483;48.622;9.230;2022-11-30T14:21:00;10.17;;;7.80;;
8893;SDS011;4483;48.622;9.230;2022-11-30T14:23:29;11.97;;;8.87;;
8893;SDS011;4483;48.622;9.230;2022-11-30T14:26:03;9.93;;;8.33;;
8893;SDS011;4483;48.622;9.230;2022-11-30T14:28:37;11.20;;;8.40;;
8893;SDS011;4483;48.622;9.230;2022-11-30T14:31:09;9.33;;;7.53;;
8893;SDS011;4483;48.622;9.230;2022-11-30T14:33:43;8.97;;;7.17;;
8893;SDS011;4483;48.622;9.230;2022-11-30T14:36:15;10.60;;;7.27;;
8893;SDS011;4483;48.622;9.230;2022-11-30T14:38:44;8.83;;;6.37;;
8893;SDS011;4483;48.622;9.230;2022-11-30T14:41:17;10.47;;;6.83;;
8893;SDS011;4483;48.622;9.230;2022-11-30T14:43:59;11.37;;;6.80;;
8893;SDS011;4483;48.622;9.230;2022-11-30T14:46:27;11.53;;;6.40;;
8893;SDS011;4483;48.622;9.230;2022-11-30T14:49:16;9.93;;;6.57;;
8893;SDS011;4483;48.622;9.230;2022-11-30T14:51:44;8.87;;;7.03;;
8893;SDS011;4483;48.622;9.230;2022-11-30T14:54:19;10.47;;;7.67;;
8893;SDS011;4483;48.622;9.230;2022-11-30T14:56:57;8.13;;;6.53;;
8893;SDS011;4483;48.622;9.230;2022-11-30T14:59:33;10.87;;;7.90;;
8893;SDS011;4483;48.622;9.230;2022-11-30T15:02:12;9.97;;;7.60;;
8893;SDS011;4483;48.622;9.230;2022-11-30T15:04:50;8.40;;;7.50;;
8893;SDS011;4483;48.622;9.230;2022-11-30T15:07:19;8.80;;;7.27;;
8893;SDS011;4483;48.622;9.230;2022-11-30T15:09:48;11.97;;;8.10;;
8893;SDS011;4483;48.622;9.230;2022-11-30T15:12:22;11.50;;;7.37;;
8893;SDS011;4483;48.622;9.230;2022-11-30T15:15:09;13.70;;;8.57;;
8893;SDS011;4483;48.622;9.230;2022-11-30T15:17:47;11.57;;;8.43;;
8893;SDS011;4483;48.622;9.230;2022-11-30T15:20:23;12.47;;;7.90;;
8893;SDS011;4483;48.622;9.230;2022-11-30T15:22:53;11.50;;;8.57;;
8893;SDS011;4483;48.622;9.230;2022-11-30T15:25:21;10.73;;;7.47;;
8893;SDS011;4483;48.622;9.230;2022-11-30T15:27:53;9.20;;;6.93;;
8893;SDS011;4483;48.622;9.230;2022-11-30T15:30:20;13.50;;;7.33;;